Briefing drone pour La ferte-saint-aubin

Rechercher une autre localisation

Conditions de vol :


Nous sommes le : Mardi 13 avril 2021
Il est 15:57 UTC (17:57 LT)

Lever de soleil : 04:39 UTC (06:39 LT)
Coucher de soleil : 19:05 UTC (21:05 LT)

Météo

L'essentiel des conditions de vol

VIGILANCE MÉTÉO FRANCE - Loiret (45)
Pas de vigilances particulieres
METAR de LFOJ
LFOJ 131530Z AUTO 05010KT 010V090 CAVOK 11/M05 Q1029 NOSIG

Date d'émission: 13/04/2021
Heure d'émission: 15:30 UTC
Vent: 050° (variable du 010° au 090°) pour 10 KT (19 km/h)
Visibilité horizontale: > 10 km
Plafond : Plafond et visibilité OK (CAVOK)
Température: 11 °C
Point de rosée: -5 °C
Humidité: 32%
Pression (QNH): 1029 hPa
Conditions: Pas de changement dans les 2 heures (NOSIG)
TAF de LFOJ
LFOJ 131400Z 1315/1415 04010KT CAVOK TX12/1415Z TNM02/1405Z

Conditions prévues :

Heure d'émission : Bulletin éffectué le 13 à 15:00 UTC
Prévision : Valide du 13 a 15:00 UTC au 14 a 15:00 UTC
Vent : 40° pour 10 KT (19 km/h)
Visibilité : > 10 km
Temp. Maxi/Min : 12 deg le 14 à 15:00 / -2 deg le 14 à 5:00
WEBCAM POUR LA FERTE-SAINT-AUBIN

Réglementation

Voler en sécurité

CARTES AERONAUTIQUE 1/500.000
CARTES VAC (LFOJ)
SUP AIP




Chargement des AIP...
NOTAM (LA FERTE-SAINT-AUBIN + Terrain à proximité / FIR )




Chargement des NOTAMS...
CONTACT PREFECTURE 45


Avertissement : Les données mises à disposition sont indicatives. Oxygène Drone ne pourra être tenu responsable de dégâts causés aux biens et aux personnes.